createdAt,value
2019-01-04T00:01:29.160Z,102533.48
2019-01-04T00:04:03.688Z,102540.94
2019-01-04T00:06:35.328Z,102549.08
2019-01-04T00:09:09.143Z,102546.43
2019-01-04T00:11:40.787Z,102552.83
2019-01-04T00:14:13.002Z,102547.16
2019-01-04T00:16:45.466Z,102547.63
2019-01-04T00:19:19.498Z,102548.55
2019-01-04T00:21:51.252Z,102550.70
2019-01-04T00:24:24.835Z,102557.17
2019-01-04T00:26:57.623Z,102550.89
2019-01-04T00:29:31.018Z,102549.66
2019-01-04T00:32:02.582Z,102547.72
2019-01-04T00:34:34.201Z,102553.66
2019-01-04T00:37:05.758Z,102559.86
2019-01-04T00:39:39.590Z,102560.92
2019-01-04T00:42:11.240Z,102556.98
2019-01-04T00:44:42.833Z,102557.73
2019-01-04T00:47:14.453Z,102555.52
2019-01-04T00:49:46.029Z,102565.64
2019-01-04T00:52:17.600Z,102563.25
2019-01-04T00:54:49.276Z,102564.84
2019-01-04T00:58:09.279Z,102562.28
2019-01-04T01:01:46.353Z,102559.89
2019-01-04T01:05:21.056Z,102561.05
2019-01-04T01:08:51.664Z,102564.55
2019-01-04T01:12:16.330Z,102565.37
2019-01-04T01:15:34.263Z,102563.81
2019-01-04T01:18:44.610Z,102557.75
2019-01-04T01:22:11.280Z,102555.16
2019-01-04T01:26:03.080Z,102551.97
2019-01-04T01:29:31.781Z,102550.61
2019-01-04T01:33:05.192Z,102560.48
2019-01-04T01:36:28.470Z,102544.26
2019-01-04T01:39:59.575Z,102557.77
2019-01-04T01:43:35.985Z,102549.19
2019-01-04T01:46:53.973Z,102549.80
2019-01-04T01:50:38.566Z,102540.41
2019-01-04T01:53:10.406Z,102552.92
2019-01-04T01:55:41.981Z,102536.86
2019-01-04T01:58:13.972Z,102541.91
2019-01-04T02:00:45.704Z,102539.72
2019-01-04T02:03:17.385Z,102534.64
2019-01-04T02:05:49.053Z,102542.72
2019-01-04T02:08:20.667Z,102529.91
2019-01-04T02:10:52.307Z,102526.62
2019-01-04T02:13:23.865Z,102539.57
2019-01-04T02:15:55.433Z,102527.83
2019-01-04T02:18:27.030Z,102526.02
2019-01-04T02:20:58.598Z,102526.86
2019-01-04T02:23:30.183Z,102528.27
2019-01-04T02:26:01.831Z,102530.50
2019-01-04T02:28:33.407Z,102536.44
2019-01-04T02:31:05.124Z,102541.97
2019-01-04T02:33:36.779Z,102534.10
2019-01-04T02:36:08.516Z,102543.55
2019-01-04T02:38:40.113Z,102547.06
2019-01-04T02:41:11.699Z,102551.84
2019-01-04T02:43:43.373Z,102547.27
2019-01-04T02:46:14.955Z,102549.31
2019-01-04T02:48:46.599Z,102549.69
2019-01-04T02:51:18.184Z,102535.84
2019-01-04T02:53:49.874Z,102526.61
2019-01-04T02:56:21.511Z,102530.33
2019-01-04T02:58:53.112Z,102528.64
2019-01-04T03:01:24.668Z,102531.46
2019-01-04T03:03:56.256Z,102532.61
2019-01-04T03:06:27.941Z,102520.35
2019-01-04T03:08:59.523Z,102524.34
2019-01-04T03:11:31.112Z,102516.62
2019-01-04T03:14:02.748Z,102508.78
2019-01-04T03:16:34.401Z,102513.25
2019-01-04T03:19:05.993Z,102511.52
2019-01-04T03:21:37.717Z,102503.08
2019-01-04T03:24:09.348Z,102501.09
2019-01-04T03:26:41.080Z,102499.72
2019-01-04T03:29:12.672Z,102495.98
2019-01-04T03:31:44.258Z,102489.25
2019-01-04T03:34:15.827Z,102485.16
2019-01-04T03:36:47.461Z,102472.12
2019-01-04T03:39:19.061Z,102464.53
2019-01-04T03:41:50.619Z,102467.03
2019-01-04T03:44:22.223Z,102460.05
2019-01-04T03:46:53.839Z,102457.80
2019-01-04T03:49:25.386Z,102456.10
2019-01-04T03:51:57.007Z,102458.72
2019-01-04T03:54:28.653Z,102451.36
2019-01-04T03:57:00.336Z,102445.14
2019-01-04T03:59:31.946Z,102443.63
2019-01-04T04:02:03.579Z,102445.08
2019-01-04T04:04:35.356Z,102442.95
2019-01-04T04:07:07.029Z,102443.83
2019-01-04T04:09:38.647Z,102446.41
2019-01-04T04:12:10.340Z,102433.47
2019-01-04T04:14:42.032Z,102431.02
2019-01-04T04:17:13.616Z,102440.89
2019-01-04T04:19:45.195Z,102425.59
2019-01-04T04:22:17.726Z,102419.46
2019-01-04T04:24:49.339Z,102418.19
2019-01-04T04:27:21.093Z,102419.80
2019-01-04T04:29:52.638Z,102404.08
2019-01-04T04:32:24.256Z,102413.16
2019-01-04T04:34:55.859Z,102412.19
2019-01-04T04:37:27.448Z,102411.66
2019-01-04T04:39:59.027Z,102406.12
2019-01-04T04:42:30.629Z,102405.50
2019-01-04T04:45:02.190Z,102399.53
2019-01-04T04:47:33.886Z,102395.22
2019-01-04T04:50:05.511Z,102391.50
2019-01-04T04:52:37.184Z,102392.60
2019-01-04T04:55:08.811Z,102388.64
2019-01-04T04:57:40.575Z,102390.80
2019-01-04T05:00:12.245Z,102385.66
2019-01-04T05:02:44.076Z,102397.11
2019-01-04T05:05:15.696Z,102393.70
2019-01-04T05:07:47.440Z,102391.72
2019-01-04T05:10:19.066Z,102391.12
2019-01-04T05:12:50.699Z,102389.50
2019-01-04T05:15:22.341Z,102394.98
2019-01-04T05:17:54.009Z,102395.58
2019-01-04T05:20:25.648Z,102389.11
2019-01-04T05:22:57.237Z,102385.80
2019-01-04T05:25:28.825Z,102392.42
2019-01-04T05:28:00.454Z,102386.98
2019-01-04T05:30:32.116Z,102386.95
2019-01-04T05:33:03.716Z,102384.15
2019-01-04T05:35:35.327Z,102385.42
2019-01-04T05:38:07.003Z,102387.42
2019-01-04T05:40:38.649Z,102389.58
2019-01-04T05:43:10.300Z,102385.06
2019-01-04T05:45:41.976Z,102386.81
2019-01-04T05:48:13.636Z,102383.13
2019-01-04T05:50:45.237Z,102383.08
2019-01-04T05:53:16.950Z,102389.72
2019-01-04T05:55:48.572Z,102395.70
2019-01-04T05:58:20.268Z,102387.32
2019-01-04T06:00:51.874Z,102389.97
2019-01-04T06:03:23.468Z,102389.11
2019-01-04T06:05:55.054Z,102383.87
2019-01-04T06:08:26.634Z,102386.39
2019-01-04T06:10:58.257Z,102381.16
2019-01-04T06:13:29.895Z,102381.44
2019-01-04T06:16:01.511Z,102383.40
2019-01-04T06:18:33.161Z,102377.30
2019-01-04T06:21:04.907Z,102377.97
2019-01-04T06:23:36.580Z,102376.38
2019-01-04T06:26:08.235Z,102372.27
2019-01-04T06:28:39.855Z,102371.47
2019-01-04T06:31:11.525Z,102373.45
2019-01-04T06:33:43.241Z,102364.80
2019-01-04T06:36:14.833Z,102364.88
2019-01-04T06:38:46.544Z,102362.14
2019-01-04T06:41:18.281Z,102360.75
2019-01-04T06:43:49.955Z,102367.25
2019-01-04T06:46:21.525Z,102357.48
2019-01-04T06:48:53.213Z,102356.41
2019-01-04T06:51:27.722Z,102360.24
2019-01-04T06:53:58.196Z,102353.20
2019-01-04T06:56:29.810Z,102360.09
2019-01-04T06:59:01.415Z,102356.32
2019-01-04T07:01:33.024Z,102361.91
2019-01-04T07:04:04.756Z,102362.59
2019-01-04T07:06:36.383Z,102355.63
2019-01-04T07:09:08.169Z,102350.54
2019-01-04T07:11:39.878Z,102347.80
2019-01-04T07:14:11.447Z,102353.16
2019-01-04T07:16:43.148Z,102344.87
2019-01-04T07:19:14.878Z,102346.19
2019-01-04T07:21:46.528Z,102348.75
2019-01-04T07:24:18.168Z,102337.66
2019-01-04T07:26:49.807Z,102335.05
2019-01-04T07:29:21.551Z,102331.06
2019-01-04T07:31:53.246Z,102333.09
2019-01-04T07:34:25.037Z,102319.98
2019-01-04T07:36:56.685Z,102319.88
2019-01-04T07:39:28.269Z,102311.13
2019-01-04T07:41:59.855Z,102302.99
2019-01-04T07:44:31.447Z,102296.55
2019-01-04T07:47:03.070Z,102299.91
2019-01-04T07:49:34.691Z,102298.75
2019-01-04T07:52:06.241Z,102286.73
2019-01-04T07:54:38.087Z,102274.33
2019-01-04T07:57:09.802Z,102266.72
2019-01-04T07:59:41.455Z,102265.53
2019-01-04T08:02:48.133Z,102258.56
2019-01-04T08:05:25.013Z,102257.80
2019-01-04T08:07:56.742Z,102250.93
2019-01-04T08:10:28.332Z,102238.03
2019-01-04T08:12:59.960Z,102236.06
2019-01-04T08:15:31.605Z,102240.47
2019-01-04T08:18:03.211Z,102230.55
2019-01-04T08:20:34.890Z,102227.84
2019-01-04T08:23:06.507Z,102222.64
2019-01-04T08:25:38.223Z,102220.47
2019-01-04T08:28:09.864Z,102211.38
2019-01-04T08:30:41.428Z,102207.13
2019-01-04T08:33:13.012Z,102195.52
2019-01-04T08:35:44.597Z,102185.72
2019-01-04T08:38:17.242Z,102178.49
2019-01-04T08:40:48.843Z,102181.06
2019-01-04T08:43:20.432Z,102173.33
2019-01-04T08:45:53.102Z,102173.84
2019-01-04T08:48:24.808Z,102164.27
2019-01-04T08:50:56.451Z,102165.84
2019-01-04T08:54:00.470Z,102161.68
2019-01-04T08:56:35.755Z,102152.91
2019-01-04T08:59:07.436Z,102151.13
2019-01-04T09:01:39.119Z,102147.75
2019-01-04T09:04:10.726Z,102162.23
2019-01-04T09:06:42.299Z,102150.43
2019-01-04T09:09:14.113Z,102147.50
2019-01-04T09:11:45.727Z,102141.75
2019-01-04T09:14:18.405Z,102147.50
2019-01-04T09:16:49.978Z,102136.38
2019-01-04T09:19:21.548Z,102124.90
2019-01-04T09:21:53.121Z,102120.14
2019-01-04T09:24:24.673Z,102113.65
2019-01-04T09:26:56.267Z,102107.71
2019-01-04T09:29:27.871Z,102108.75
2019-01-04T09:31:59.451Z,102108.00
2019-01-04T09:34:31.049Z,102089.91
2019-01-04T09:37:02.778Z,102081.83
2019-01-04T09:39:34.377Z,102079.84
2019-01-04T09:42:15.513Z,102079.81
2019-01-04T09:44:47.931Z,102079.06
2019-01-04T09:47:19.505Z,102071.05
2019-01-04T09:49:51.209Z,102053.77
2019-01-04T09:52:22.795Z,102059.88
2019-01-04T09:54:54.705Z,102052.52
2019-01-04T09:57:26.431Z,102045.81
2019-01-04T09:59:59.059Z,102043.23
2019-01-04T10:02:31.643Z,102034.70
2019-01-04T10:05:03.240Z,102020.13
2019-01-04T10:07:35.008Z,102007.62
2019-01-04T10:10:09.208Z,102010.34
2019-01-04T10:12:40.945Z,101997.05
2019-01-04T10:15:16.167Z,101991.11
2019-01-04T10:17:47.826Z,101987.77
2019-01-04T10:20:19.466Z,101988.52
2019-01-04T10:22:51.196Z,101985.94
2019-01-04T10:25:23.038Z,101974.75
2019-01-04T10:27:55.709Z,101966.75
2019-01-04T10:30:28.919Z,101956.28
2019-01-04T10:33:00.487Z,101951.87
2019-01-04T10:35:32.118Z,101940.28
2019-01-04T10:38:03.711Z,101930.47
2019-01-04T10:40:35.319Z,101930.48
2019-01-04T10:43:07.003Z,101925.67
2019-01-04T10:45:38.605Z,101922.69
2019-01-04T10:48:10.290Z,101915.48
2019-01-04T10:50:41.877Z,101902.55
2019-01-04T10:53:13.484Z,101894.17
2019-01-04T10:55:45.056Z,101886.31
2019-01-04T10:58:16.639Z,101879.25
2019-01-04T11:00:48.263Z,101867.75
2019-01-04T11:03:19.907Z,101860.11
2019-01-04T11:05:51.498Z,101854.42
2019-01-04T11:08:23.145Z,101852.50
2019-01-04T11:10:54.708Z,101845.20
2019-01-04T11:13:26.373Z,101836.80
2019-01-04T11:15:57.966Z,101835.55
2019-01-04T11:18:29.608Z,101829.34
2019-01-04T11:21:04.837Z,101829.47
2019-01-04T11:24:40.188Z,101822.39
2019-01-04T11:27:45.218Z,101812.27
2019-01-04T11:30:50.862Z,101811.32
2019-01-04T11:34:38.253Z,101801.72
2019-01-04T11:37:54.494Z,101799.31
2019-01-04T11:41:08.479Z,101788.85
2019-01-04T11:44:46.040Z,101783.92
2019-01-04T11:48:03.016Z,101785.84
2019-01-04T11:51:20.213Z,101778.00
2019-01-04T11:53:51.768Z,101776.70
2019-01-04T11:56:23.420Z,101761.05
2019-01-04T11:58:55.062Z,101754.70
2019-01-04T12:01:26.896Z,101764.22
2019-01-04T12:04:02.197Z,101763.93
2019-01-04T12:06:34.097Z,101750.91
2019-01-04T12:09:08.525Z,101754.64
2019-01-04T12:11:40.172Z,101752.23
2019-01-04T12:14:11.765Z,101751.45
2019-01-04T12:16:43.322Z,101738.25
2019-01-04T12:19:14.977Z,101736.73
2019-01-04T12:21:46.586Z,101723.08
2019-01-04T12:24:18.201Z,101715.11
2019-01-04T12:26:49.788Z,101717.58
2019-01-04T12:29:21.381Z,101713.47
2019-01-04T12:31:53.081Z,101708.78
2019-01-04T12:34:25.992Z,101706.76
2019-01-04T12:36:57.592Z,101707.31
2019-01-04T12:39:29.170Z,101703.38
2019-01-04T12:42:00.856Z,101704.81
2019-01-04T12:44:32.554Z,101708.05
2019-01-04T12:47:04.329Z,101695.98
2019-01-04T12:49:36.032Z,101692.89
2019-01-04T12:52:09.290Z,101697.84
2019-01-04T12:54:40.957Z,101686.84
2019-01-04T12:57:12.574Z,101680.53
2019-01-04T12:59:44.331Z,101672.71
2019-01-04T13:02:15.926Z,101671.48
2019-01-04T13:04:47.535Z,101681.59
2019-01-04T13:07:19.274Z,101678.34
2019-01-04T13:09:50.897Z,101679.31
2019-01-04T13:12:24.423Z,101681.37
2019-01-04T13:14:56.269Z,101683.12
2019-01-04T13:17:28.579Z,101689.80
2019-01-04T13:20:01.226Z,101677.50
2019-01-04T13:22:34.094Z,101679.92
2019-01-04T13:25:07.985Z,101677.50
2019-01-04T13:27:39.833Z,101674.30
2019-01-04T13:30:11.722Z,101671.42
2019-01-04T13:32:43.608Z,101679.56
2019-01-04T13:35:15.231Z,101678.66
2019-01-04T13:37:46.876Z,101674.85
2019-01-04T13:40:18.626Z,101665.58
2019-01-04T13:42:50.574Z,101671.78
2019-01-04T13:45:22.291Z,101667.39
2019-01-04T13:47:53.901Z,101662.51
2019-01-04T13:50:25.498Z,101656.52
2019-01-04T13:52:57.159Z,101659.41
2019-01-04T13:55:28.743Z,101654.84
2019-01-04T13:58:01.312Z,101643.66
2019-01-04T14:00:34.031Z,101643.12
2019-01-04T14:03:05.758Z,101630.89
2019-01-04T14:05:37.502Z,101627.60
2019-01-04T14:08:09.249Z,101627.38
2019-01-04T14:10:40.872Z,101626.56
2019-01-04T14:13:12.586Z,101619.61
2019-01-04T14:15:44.236Z,101605.58
2019-01-04T14:18:15.856Z,101610.88
2019-01-04T14:20:47.443Z,101606.84
2019-01-04T14:23:19.033Z,101595.38
2019-01-04T14:25:50.698Z,101599.75
2019-01-04T14:28:22.388Z,101591.31
2019-01-04T14:30:54.117Z,101593.23
2019-01-04T14:33:25.722Z,101591.11
2019-01-04T14:35:57.356Z,101589.89
2019-01-04T14:38:29.169Z,101588.67
2019-01-04T14:41:00.721Z,101584.88
2019-01-04T14:43:32.815Z,101582.89
2019-01-04T14:46:04.425Z,101574.59
2019-01-04T14:48:36.129Z,101562.28
2019-01-04T14:51:07.911Z,101560.80
2019-01-04T14:53:39.479Z,101562.34
2019-01-04T14:56:11.358Z,101557.18
2019-01-04T14:58:42.993Z,101561.66
2019-01-04T15:01:14.734Z,101564.18
2019-01-04T15:03:46.458Z,101559.86
2019-01-04T15:06:18.126Z,101547.35
2019-01-04T15:08:49.864Z,101541.61
2019-01-04T15:11:21.475Z,101541.97
2019-01-04T15:13:53.077Z,101537.45
2019-01-04T15:16:24.826Z,101540.82
2019-01-04T15:18:56.605Z,101544.30
2019-01-04T15:21:28.204Z,101542.59
2019-01-04T15:23:59.846Z,101543.47
2019-01-04T15:26:31.521Z,101528.97
2019-01-04T15:29:03.131Z,101535.04
2019-01-04T15:31:34.738Z,101540.12
2019-01-04T15:34:06.395Z,101532.70
2019-01-04T15:36:38.234Z,101530.40
2019-01-04T15:39:10.243Z,101535.59
2019-01-04T15:41:41.955Z,101530.93
2019-01-04T15:44:15.957Z,101532.05
2019-01-04T15:46:47.655Z,101526.08
2019-01-04T15:49:19.338Z,101532.67
2019-01-04T15:51:51.101Z,101525.76
2019-01-04T15:54:22.700Z,101522.70
2019-01-04T15:56:54.278Z,101514.34
2019-01-04T15:59:25.969Z,101517.36
2019-01-04T16:01:57.700Z,101515.17
2019-01-04T16:04:29.614Z,101514.09
2019-01-04T16:07:01.318Z,101517.54
2019-01-04T16:09:32.986Z,101509.17
2019-01-04T16:12:04.786Z,101512.92
2019-01-04T16:14:36.701Z,101498.52
2019-01-04T16:17:12.062Z,101505.63
2019-01-04T16:19:42.074Z,101502.53
2019-01-04T16:22:13.706Z,101495.59
2019-01-04T16:24:45.311Z,101484.11
2019-01-04T16:27:17.020Z,101480.03
2019-01-04T16:29:48.616Z,101475.95
2019-01-04T16:32:20.400Z,101482.14
2019-01-04T16:34:52.360Z,101481.19
2019-01-04T16:37:24.035Z,101475.07
2019-01-04T16:39:56.596Z,101474.33
2019-01-04T16:42:28.271Z,101467.05
2019-01-04T16:45:00.026Z,101472.61
2019-01-04T16:47:31.793Z,101475.92
2019-01-04T16:50:03.797Z,101464.25
2019-01-04T16:52:35.512Z,101469.76
2019-01-04T16:55:09.486Z,101470.94
2019-01-04T16:57:41.200Z,101472.59
2019-01-04T17:00:12.993Z,101475.33
2019-01-04T17:02:47.416Z,101472.05
2019-01-04T17:05:19.389Z,101469.30
2019-01-04T17:07:57.117Z,101476.22
2019-01-04T17:10:28.743Z,101470.42
2019-01-04T17:13:00.440Z,101463.65
2019-01-04T17:15:32.118Z,101462.44
2019-01-04T17:18:03.698Z,101464.70
2019-01-04T17:20:35.455Z,101460.80
2019-01-04T17:23:07.031Z,101457.50
2019-01-04T17:25:38.654Z,101449.73
2019-01-04T17:28:10.332Z,101444.92
2019-01-04T17:30:41.909Z,101441.48
2019-01-04T17:33:13.559Z,101437.25
2019-01-04T17:35:46.774Z,101442.12
2019-01-04T17:38:18.483Z,101435.56
2019-01-04T17:40:50.179Z,101438.39
2019-01-04T17:43:22.004Z,101432.17
2019-01-04T17:45:53.715Z,101439.46
2019-01-04T17:48:25.522Z,101437.61
2019-01-04T17:50:57.221Z,101442.02
2019-01-04T17:53:28.977Z,101436.23
2019-01-04T17:56:00.717Z,101437.88
2019-01-04T17:58:32.453Z,101427.23
2019-01-04T18:01:04.335Z,101436.27
2019-01-04T18:03:36.167Z,101445.55
2019-01-04T18:06:07.975Z,101442.58
2019-01-04T18:08:39.970Z,101434.98
2019-01-04T18:11:11.749Z,101425.42
2019-01-04T18:13:43.511Z,101432.59
2019-01-04T18:16:34.996Z,101435.11
2019-01-04T18:19:05.429Z,101421.66
2019-01-04T18:21:42.652Z,101423.84
2019-01-04T18:24:14.392Z,101418.06
2019-01-04T18:26:46.074Z,101414.17
2019-01-04T18:29:23.616Z,101411.50
2019-01-04T18:31:55.302Z,101413.38
2019-01-04T18:34:26.978Z,101415.39
2019-01-04T18:36:58.673Z,101417.09
2019-01-04T18:39:30.394Z,101413.87
2019-01-04T18:42:02.131Z,101418.55
2019-01-04T18:44:34.411Z,101424.13
2019-01-04T18:47:06.798Z,101416.35
2019-01-04T18:49:44.806Z,101421.67
2019-01-04T18:52:16.817Z,101425.62
2019-01-04T18:54:52.260Z,101431.17
2019-01-04T18:57:27.064Z,101432.80
2019-01-04T19:00:00.161Z,101435.56
2019-01-04T19:02:32.942Z,101432.77
2019-01-04T19:05:05.694Z,101431.09
2019-01-04T19:07:37.719Z,101421.26
2019-01-04T19:10:11.085Z,101415.14
2019-01-04T19:12:42.797Z,101412.19
2019-01-04T19:15:14.629Z,101411.09
2019-01-04T19:17:47.608Z,101411.98
2019-01-04T19:20:19.313Z,101402.14
2019-01-04T19:22:50.920Z,101405.05
2019-01-04T19:25:22.578Z,101409.20
2019-01-04T19:27:54.230Z,101400.06
2019-01-04T19:30:26.022Z,101397.83
2019-01-04T19:32:57.780Z,101403.95
2019-01-04T19:35:29.476Z,101397.36
2019-01-04T19:38:01.296Z,101395.23
2019-01-04T19:40:33.271Z,101394.36
2019-01-04T19:43:05.052Z,101389.06
2019-01-04T19:45:36.833Z,101395.53
2019-01-04T19:48:08.800Z,101398.50
2019-01-04T19:50:40.469Z,101388.12
2019-01-04T19:53:12.206Z,101385.89
2019-01-04T19:55:43.978Z,101375.77
2019-01-04T19:58:15.645Z,101374.11
2019-01-04T20:00:47.522Z,101360.20
2019-01-04T20:03:19.360Z,101361.86
2019-01-04T20:07:34.485Z,101358.25
2019-01-04T20:11:31.350Z,101345.92
2019-01-04T20:15:46.648Z,101340.04
2019-01-04T20:19:00.361Z,101327.48
2019-01-04T20:21:50.436Z,101324.48
2019-01-04T20:24:44.186Z,101321.14
2019-01-04T20:27:30.323Z,101321.23
2019-01-04T20:30:36.011Z,101322.76
2019-01-04T20:33:25.475Z,101307.11
2019-01-04T20:36:15.559Z,101328.41
2019-01-04T20:39:24.344Z,101336.17
2019-01-04T20:42:13.548Z,101335.52
2019-01-04T20:45:02.935Z,101323.14
2019-01-04T20:47:52.869Z,101315.12
2019-01-04T20:50:40.840Z,101305.39
2019-01-04T20:53:37.269Z,101302.86
2019-01-04T20:56:26.682Z,101309.48
2019-01-04T20:59:32.265Z,101298.78
2019-01-04T21:02:21.451Z,101294.45
2019-01-04T21:05:10.526Z,101307.58
2019-01-04T21:08:01.100Z,101287.45
2019-01-04T21:10:51.638Z,101289.73
2019-01-04T21:13:48.259Z,101295.81
2019-01-04T21:16:47.513Z,101289.64
2019-01-04T21:19:44.268Z,101285.73
2019-01-04T21:22:33.376Z,101279.59
2019-01-04T21:25:26.827Z,101284.77
2019-01-04T21:28:17.427Z,101276.30
2019-01-04T21:31:07.980Z,101267.30
2019-01-04T21:33:57.117Z,101251.37
2019-01-04T21:36:48.178Z,101276.69
2019-01-04T21:39:37.735Z,101268.58
2019-01-04T21:42:26.438Z,101274.21
2019-01-04T21:45:15.627Z,101265.75
2019-01-04T21:48:05.103Z,101263.77
2019-01-04T21:50:58.399Z,101262.15
2019-01-04T21:54:00.897Z,101272.23
2019-01-04T21:56:51.323Z,101264.42
2019-01-04T21:59:45.297Z,101246.43
2019-01-04T22:02:35.734Z,101252.91
2019-01-04T22:05:25.095Z,101247.65
2019-01-04T22:08:14.361Z,101245.00
2019-01-04T22:11:16.857Z,101239.52
2019-01-04T22:14:07.359Z,101244.13
2019-01-04T22:16:57.829Z,101235.48
2019-01-04T22:19:54.305Z,101237.36
2019-01-04T22:22:47.681Z,101232.89
2019-01-04T22:25:37.105Z,101231.62
2019-01-04T22:28:31.020Z,101228.89
2019-01-04T22:31:20.567Z,101221.92
2019-01-04T22:34:13.413Z,101207.77
2019-01-04T22:36:54.824Z,101207.64
2019-01-04T22:39:38.251Z,101203.63
2019-01-04T22:42:27.651Z,101208.34
2019-01-04T22:45:18.547Z,101216.06
2019-01-04T22:48:22.130Z,101210.83
2019-01-04T22:51:18.478Z,101206.69
2019-01-04T22:54:08.036Z,101192.70
2019-01-04T22:57:10.364Z,101196.13
2019-01-04T23:00:00.868Z,101186.40
2019-01-04T23:02:51.625Z,101187.06
2019-01-04T23:05:54.131Z,101183.72
2019-01-04T23:08:43.332Z,101179.56
2019-01-04T23:11:43.062Z,101177.03
2019-01-04T23:14:33.486Z,101171.41
2019-01-04T23:17:19.939Z,101162.55
2019-01-04T23:20:19.473Z,101167.84
2019-01-04T23:23:09.953Z,101162.36
2019-01-04T23:26:09.502Z,101158.69
2019-01-04T23:29:18.111Z,101150.12
2019-01-04T23:32:08.531Z,101156.08
2019-01-04T23:34:58.123Z,101157.10
2019-01-04T23:37:48.569Z,101150.24
2019-01-04T23:40:37.969Z,101146.75
2019-01-04T23:43:37.247Z,101147.88
2019-01-04T23:46:33.996Z,101147.05
2019-01-04T23:49:30.602Z,101141.22
2019-01-04T23:52:19.583Z,101136.88
2019-01-04T23:55:28.132Z,101139.75
2019-01-04T23:58:20.291Z,101123.84
